WetterOnline ( http://www.wetteronline.de )

Wetter aktuell Harz (in 600m)

Aktuelles Wetter: Braunlage (609m)

6-stündlich | Neueste Meldungen
Ortszeit Temperatur Wetter
Mi, 29.03. 8:00 7.2° C fast wolkenlos
Mi, 29.03. 2:00 9.0° C wolkenlos
Di, 28.03. 20:00 10.5° C wolkenlos
Di, 28.03. 14:00 16.0° C wolkenlos
Ortszeit Temperatur Wetter
Mi, 29.03. 11:00 9.6° C bewölkt
Mi, 29.03. 10:30 9.0° C bewölkt
Mi, 29.03. 10:00 8.5° C bewölkt
Mi, 29.03. 9:30 8.3° C bewölkt
Mi, 29.03. 9:00 8.1° C bewölkt
Mi, 29.03. 8:30 7.6° C wolkig
Ortszeit Relative Feuchte Sichtweite
Mi, 29.03. 8:00 84% 8 km
Mi, 29.03. 2:00 66% 14 km
Di, 28.03. 20:00 66% 40 km
Di, 28.03. 14:00 37% 30 km
Ortszeit Relative Feuchte Sichtweite
Mi, 29.03. 11:00 69% 26 km
Mi, 29.03. 10:30 76% 22 km
Mi, 29.03. 10:00 78% 14 km
Mi, 29.03. 9:30 81% 12 km
Mi, 29.03. 9:00 81% 12 km
Mi, 29.03. 8:30 82% 10 km
Ortszeit Niederschlagsmenge Niederschlagsart
Mi, 29.03. 8:00 0,0 l/m2 in 12 Std. -
Mi, 29.03. 2:00 0,0 l/m2 in 6 Std. -
Di, 28.03. 20:00 0,0 l/m2 in 12 Std. -
Di, 28.03. 14:00 0,0 l/m2 in 6 Std. -
Ortszeit Niederschlagsmenge Niederschlagsart
Mi, 29.03. 11:00 0,0 l/m2 in 1 Std. -
Mi, 29.03. 10:30 keine Meldung -
Mi, 29.03. 10:00 0,0 l/m2 in 1 Std. -
Mi, 29.03. 9:30 keine Meldung -
Mi, 29.03. 9:00 0,0 l/m2 in 1 Std. -
Mi, 29.03. 8:30 keine Meldung -
Ortszeit Stärke Spitze Richtung
km/h Bft. km/h Grad Sektor
Mi, 29.03. 8:00 13 3 31 230° SW
Mi, 29.03. 2:00 7 2 22 240° SW
Di, 28.03. 20:00 4 1 40 290° W
Di, 28.03. 14:00 11 2 29 250° W
Ortszeit Stärke Spitze Richtung
km/h Bft. km/h Grad Sektor
Mi, 29.03. 11:00 18 3 43 240° SW
Mi, 29.03. 10:30 17 3 44 250° W
Mi, 29.03. 10:00 22 4 40 240° SW
Mi, 29.03. 9:30 14 3 36 240° SW
Mi, 29.03. 9:00 17 3 37 240° SW
Mi, 29.03. 8:30 14 3 36 230° SW
Ortszeit Untergrenze Bedeckung Gattung
total tief tief mittel hoch
Mi, 29.03. 8:00 10500 m 1/8 0/8 - - -
Mi, 29.03. 2:00 - 0/8 0/8 - - -
Di, 28.03. 20:00 - 0/8 0/8 - - -
Di, 28.03. 14:00 - 0/8 0/8 - - -
Ortszeit Bedeckungsgrad in Achtel und Wolkenuntergrenze
Mi, 29.03. 11:00 4(570m) 5(750m) 7(1440m)
Mi, 29.03. 10:30 4(480m) 6(600m) 7(1500m)
Mi, 29.03. 10:00 7(480m) 7(630m)
Mi, 29.03. 9:30 7(450m) 7(570m)
Mi, 29.03. 9:00 7(480m)
Mi, 29.03. 8:30 5(480m)
Ortszeit Luftdruck NN (hPa) Tendenz (hPa in 3 Std.)
Mi, 29.03. 8:00 1023 - 0,1
Mi, 29.03. 2:00 1022 + 0,5
Di, 28.03. 20:00 1021 + 0,1
Di, 28.03. 14:00 1020 - 0,3
Ortszeit Luftdruck NN (hPa) Tendenz (hPa in 3 Std.)
Mi, 29.03. 11:00 1023 + 1,0
Mi, 29.03. 10:30 1023 + 0,6
Mi, 29.03. 10:00 1023 + 0,4
Mi, 29.03. 9:30 1022 + 0,2
Mi, 29.03. 9:00 1023 + 0,2
Mi, 29.03. 8:30 1023 + 0,1
Ortszeit Schneehöhe (cm)
Mi, 29.03. 8:00 -
Mi, 29.03. 2:00 -
Di, 28.03. 20:00 -
Di, 28.03. 14:00 -
Ortszeit Schneehöhe (cm)
Mi, 29.03. 11:00 -
Mi, 29.03. 10:30 -
Mi, 29.03. 10:00 -
Mi, 29.03. 9:30 -
Mi, 29.03. 9:00 -
Mi, 29.03. 8:30 -
Link zu dieser Seite / Seite empfehlen

Das Wetter in ...